createdAt,value
2018-03-02T00:01:05.637Z,54.58
2018-03-02T00:03:34.034Z,52.20
2018-03-02T00:06:02.427Z,51.63
2018-03-02T00:08:30.773Z,45.70
2018-03-02T00:10:59.092Z,48.15
2018-03-02T00:13:27.452Z,52.22
2018-03-02T00:15:55.793Z,57.92
2018-03-02T00:18:24.204Z,59.30
2018-03-02T00:20:52.519Z,58.72
2018-03-02T00:23:20.861Z,53.45
2018-03-02T00:25:49.275Z,47.90
2018-03-02T00:28:17.624Z,55.45
2018-03-02T00:30:46.057Z,62.53
2018-03-02T00:33:14.449Z,53.95
2018-03-02T00:35:42.797Z,77.40
2018-03-02T00:38:11.154Z,65.37
2018-03-02T00:40:39.517Z,57.67
2018-03-02T00:43:08.352Z,53.38
2018-03-02T00:45:36.702Z,59.50
2018-03-02T00:48:05.098Z,64.75
2018-03-02T00:50:33.462Z,62.25
2018-03-02T00:53:01.816Z,56.83
2018-03-02T00:55:30.202Z,51.37
2018-03-02T00:57:58.526Z,71.72
2018-03-02T01:00:26.864Z,54.50
2018-03-02T01:02:55.200Z,60.80
2018-03-02T01:05:23.642Z,60.20
2018-03-02T01:07:52.058Z,57.40
2018-03-02T01:10:20.404Z,61.80
2018-03-02T01:12:48.847Z,65.60
2018-03-02T01:15:17.208Z,70.30
2018-03-02T01:17:45.603Z,57.85
2018-03-02T01:20:13.947Z,65.70
2018-03-02T01:22:42.375Z,55.83
2018-03-02T01:25:11.114Z,63.08
2018-03-02T01:27:39.447Z,67.82
2018-03-02T01:30:07.778Z,50.33
2018-03-02T01:32:36.120Z,69.18
2018-03-02T01:35:04.448Z,64.75
2018-03-02T01:37:32.860Z,60.90
2018-03-02T01:40:01.227Z,52.80
2018-03-02T01:42:29.578Z,49.47
2018-03-02T01:44:57.969Z,67.97
2018-03-02T01:47:26.409Z,61.45
2018-03-02T01:49:54.767Z,63.97
2018-03-02T01:52:23.187Z,55.90
2018-03-02T01:54:51.550Z,62.70
2018-03-02T01:57:19.972Z,69.50
2018-03-02T01:59:48.372Z,64.30
2018-03-02T02:02:16.741Z,63.90
2018-03-02T02:04:45.083Z,69.32
2018-03-02T02:07:13.443Z,71.25
2018-03-02T02:09:41.804Z,64.85
2018-03-02T02:12:10.147Z,70.75
2018-03-02T02:14:38.500Z,66.85
2018-03-02T02:17:06.856Z,76.10
2018-03-02T02:19:35.297Z,65.20
2018-03-02T02:22:03.705Z,68.82
2018-03-02T02:24:32.070Z,73.10
2018-03-02T02:27:00.393Z,62.70
2018-03-02T02:29:28.728Z,70.05
2018-03-02T02:31:57.146Z,74.78
2018-03-02T02:34:25.556Z,62.80
2018-03-02T02:36:53.936Z,75.70
2018-03-02T02:39:22.285Z,70.07
2018-03-02T02:41:50.678Z,80.10
2018-03-02T02:44:19.011Z,64.32
2018-03-02T02:46:47.746Z,69.78
2018-03-02T02:49:16.105Z,70.72
2018-03-02T02:51:44.436Z,66.35
2018-03-02T02:54:12.805Z,69.45
2018-03-02T02:56:41.199Z,73.05
2018-03-02T02:59:09.547Z,86.05
2018-03-02T03:01:37.870Z,65.35
2018-03-02T03:04:06.212Z,76.65
2018-03-02T03:06:34.546Z,76.93
2018-03-02T03:09:02.876Z,77.62
2018-03-02T03:11:31.224Z,76.12
2018-03-02T03:13:59.558Z,78.37
2018-03-02T03:16:27.943Z,75.10
2018-03-02T03:18:56.265Z,80.10
2018-03-02T03:21:24.744Z,79.53
2018-03-02T03:23:53.060Z,80.55
2018-03-02T03:26:21.507Z,75.43
2018-03-02T03:28:49.865Z,75.43
2018-03-02T03:31:18.368Z,67.70
2018-03-02T03:33:46.705Z,81.35
2018-03-02T03:36:15.064Z,77.70
2018-03-02T03:38:43.393Z,74.65
2018-03-02T03:41:11.733Z,69.53
2018-03-02T03:43:40.059Z,84.90
2018-03-02T03:46:08.522Z,71.47
2018-03-02T03:48:36.853Z,71.40
2018-03-02T03:51:05.191Z,72.43
2018-03-02T03:53:33.530Z,66.10
2018-03-02T03:56:01.872Z,69.70
2018-03-02T03:58:30.216Z,80.87
2018-03-02T04:00:58.565Z,71.97
2018-03-02T04:03:26.918Z,73.30
2018-03-02T04:05:55.258Z,73.65
2018-03-02T04:08:23.629Z,75.35
2018-03-02T04:10:52.513Z,69.15
2018-03-02T04:13:20.951Z,79.20
2018-03-02T04:15:49.605Z,88.35
2018-03-02T04:18:18.482Z,76.90
2018-03-02T04:20:47.068Z,78.65
2018-03-02T04:23:15.396Z,75.62
2018-03-02T04:25:43.733Z,78.90
2018-03-02T04:28:12.409Z,77.78
2018-03-02T04:30:40.777Z,80.55
2018-03-02T04:33:09.214Z,77.53
2018-03-02T04:35:37.596Z,79.78
2018-03-02T04:38:05.938Z,76.82
2018-03-02T04:40:34.289Z,83.95
2018-03-02T04:43:02.626Z,88.40
2018-03-02T04:45:30.958Z,80.75
2018-03-02T04:47:59.297Z,70.85
2018-03-02T04:50:27.677Z,79.50
2018-03-02T04:52:56.000Z,72.75
2018-03-02T04:55:24.412Z,78.20
2018-03-02T04:57:52.744Z,73.78
2018-03-02T05:00:21.088Z,72.90
2018-03-02T05:02:49.421Z,73.20
2018-03-02T05:05:17.810Z,70.78
2018-03-02T05:07:47.123Z,67.53
2018-03-02T05:10:15.505Z,91.32
2018-03-02T05:12:43.890Z,79.93
2018-03-02T05:15:12.234Z,88.70
2018-03-02T05:17:40.571Z,88.70
2018-03-02T05:20:08.921Z,70.90
2018-03-02T05:22:37.258Z,76.07
2018-03-02T05:25:05.640Z,93.45
2018-03-02T05:27:33.977Z,78.45
2018-03-02T05:30:02.422Z,73.65
2018-03-02T05:32:30.870Z,76.28
2018-03-02T05:34:59.239Z,85.05
2018-03-02T05:37:27.621Z,80.25
2018-03-02T05:39:55.964Z,80.00
2018-03-02T05:42:24.329Z,74.65
2018-03-02T05:44:52.671Z,86.28
2018-03-02T05:47:21.029Z,78.47
2018-03-02T05:49:49.336Z,78.30
2018-03-02T05:52:17.677Z,76.53
2018-03-02T05:54:45.999Z,79.32
2018-03-02T05:57:14.441Z,81.85
2018-03-02T05:59:42.771Z,86.72
2018-03-02T06:02:11.123Z,84.20
2018-03-02T06:04:39.517Z,86.90
2018-03-02T06:07:07.923Z,71.28
2018-03-02T06:09:36.252Z,83.43
2018-03-02T06:12:04.631Z,75.03
2018-03-02T06:14:32.962Z,85.50
2018-03-02T06:17:01.296Z,71.90
2018-03-02T06:19:29.667Z,73.55
2018-03-02T06:21:58.108Z,77.87
2018-03-02T06:24:26.475Z,87.18
2018-03-02T06:26:54.861Z,84.43
2018-03-02T06:29:23.218Z,79.97
2018-03-02T06:31:51.626Z,99.65
2018-03-02T06:34:20.046Z,75.40
2018-03-02T06:36:48.410Z,72.20
2018-03-02T06:39:16.754Z,84.72
2018-03-02T06:41:45.086Z,72.40
2018-03-02T06:44:13.487Z,69.40
2018-03-02T06:46:41.827Z,74.78
2018-03-02T06:49:10.154Z,75.90
2018-03-02T06:51:38.511Z,77.72
2018-03-02T06:54:06.947Z,77.43
2018-03-02T06:56:35.338Z,71.82
2018-03-02T06:59:03.737Z,75.22
2018-03-02T07:01:32.075Z,83.30
2018-03-02T07:04:00.410Z,74.40
2018-03-02T07:06:28.761Z,90.93
2018-03-02T07:08:57.121Z,75.47
2018-03-02T07:11:25.524Z,81.10
2018-03-02T07:13:53.916Z,72.03
2018-03-02T07:16:22.292Z,74.80
2018-03-02T07:18:50.670Z,81.60
2018-03-02T07:21:18.986Z,78.33
2018-03-02T07:23:47.372Z,85.90
2018-03-02T07:26:15.705Z,73.57
2018-03-02T07:28:44.042Z,78.17
2018-03-02T07:31:12.426Z,76.17
2018-03-02T07:33:40.758Z,77.77
2018-03-02T07:36:09.096Z,72.83
2018-03-02T07:38:37.499Z,64.77
2018-03-02T07:41:05.830Z,66.80
2018-03-02T07:43:34.269Z,63.27
2018-03-02T07:46:02.584Z,57.57
2018-03-02T07:48:30.910Z,60.50
2018-03-02T07:50:59.258Z,61.67
2018-03-02T07:53:27.596Z,60.77
2018-03-02T07:55:55.948Z,72.27
2018-03-02T07:58:24.299Z,70.17
2018-03-02T08:00:52.658Z,76.57
2018-03-02T08:03:21.071Z,62.13
2018-03-02T08:05:49.529Z,65.73
2018-03-02T08:08:17.853Z,58.93
2018-03-02T08:10:46.207Z,70.23
2018-03-02T08:13:14.536Z,55.87
2018-03-02T08:15:42.986Z,61.10
2018-03-02T08:18:11.321Z,54.90
2018-03-02T08:20:39.657Z,63.23
2018-03-02T08:23:07.971Z,60.07
2018-03-02T08:25:36.285Z,61.40
2018-03-02T08:28:04.628Z,65.33
2018-03-02T08:30:33.027Z,62.17
2018-03-02T08:33:01.357Z,70.80
2018-03-02T08:35:29.681Z,64.27
2018-03-02T08:37:58.014Z,61.03
2018-03-02T08:40:26.334Z,60.77
2018-03-02T08:42:54.669Z,60.67
2018-03-02T08:45:23.015Z,64.33
2018-03-02T08:47:51.460Z,66.57
2018-03-02T08:50:19.861Z,64.43
2018-03-02T08:52:48.166Z,63.33
2018-03-02T08:55:16.584Z,61.03
2018-03-02T08:57:44.941Z,60.93
2018-03-02T09:00:13.240Z,61.53
2018-03-02T09:02:41.562Z,66.83
2018-03-02T09:05:09.894Z,70.40
2018-03-02T09:07:38.207Z,67.97
2018-03-02T09:10:06.696Z,64.73
2018-03-02T09:12:34.977Z,64.60
2018-03-02T09:15:03.362Z,58.37
2018-03-02T09:17:31.751Z,60.07
2018-03-02T09:20:00.151Z,65.20
2018-03-02T09:22:28.472Z,65.40
2018-03-02T09:24:56.812Z,55.20
2018-03-02T09:27:25.126Z,57.37
2018-03-02T09:29:53.440Z,57.43
2018-03-02T09:32:21.777Z,56.63
2018-03-02T09:34:50.103Z,62.00
2018-03-02T09:37:18.440Z,53.23
2018-03-02T09:39:46.868Z,57.33
2018-03-02T09:42:15.287Z,59.07
2018-03-02T09:44:43.666Z,58.33
2018-03-02T09:47:12.005Z,57.37
2018-03-02T09:49:40.326Z,57.47
2018-03-02T09:52:08.738Z,58.07
2018-03-02T09:54:37.053Z,55.33
2018-03-02T09:57:05.669Z,52.47
2018-03-02T09:59:34.006Z,55.00
2018-03-02T10:02:02.328Z,55.50
2018-03-02T10:04:30.689Z,56.53
2018-03-02T10:06:59.099Z,54.13
2018-03-02T10:09:27.534Z,52.30
2018-03-02T10:11:55.987Z,60.50
2018-03-02T10:14:24.376Z,58.60
2018-03-02T10:16:52.768Z,59.20
2018-03-02T10:19:21.209Z,65.53
2018-03-02T10:21:49.540Z,51.73
2018-03-02T10:24:17.917Z,57.77
2018-03-02T10:26:46.241Z,58.00
2018-03-02T10:29:14.931Z,64.97
2018-03-02T10:31:43.301Z,62.87
2018-03-02T10:34:11.678Z,54.90
2018-03-02T10:36:40.115Z,56.27
2018-03-02T10:39:08.454Z,56.10
2018-03-02T10:41:36.897Z,64.73
2018-03-02T10:44:05.225Z,61.27
2018-03-02T10:46:33.561Z,65.30
2018-03-02T10:49:01.911Z,53.20
2018-03-02T10:51:30.366Z,64.07
2018-03-02T10:53:58.747Z,61.80
2018-03-02T10:56:27.062Z,64.50
2018-03-02T10:58:55.406Z,62.60
2018-03-02T11:01:26.456Z,66.97
2018-03-02T11:04:00.336Z,63.13
2018-03-02T11:06:28.645Z,61.40
2018-03-02T11:08:57.301Z,59.17
2018-03-02T11:11:25.713Z,65.13
2018-03-02T11:13:54.049Z,72.27
2018-03-02T11:16:22.377Z,78.57
2018-03-02T11:18:50.705Z,73.70
2018-03-02T11:21:19.023Z,71.40
2018-03-02T11:23:47.514Z,67.80
2018-03-02T11:26:15.850Z,73.87
2018-03-02T11:28:44.295Z,73.27
2018-03-02T11:31:12.639Z,67.97
2018-03-02T11:33:41.012Z,70.27
2018-03-02T11:36:09.958Z,73.13
2018-03-02T11:38:38.372Z,74.87
2018-03-02T11:41:06.714Z,76.17
2018-03-02T11:43:35.087Z,66.70
2018-03-02T11:46:03.491Z,73.27
2018-03-02T11:48:31.908Z,73.03
2018-03-02T11:51:00.294Z,68.73
2018-03-02T11:53:28.613Z,80.07
2018-03-02T11:55:56.938Z,69.60
2018-03-02T11:58:25.271Z,72.27
2018-03-02T12:00:53.609Z,81.93
2018-03-02T12:03:21.960Z,77.10
2018-03-02T12:05:50.266Z,81.17
2018-03-02T12:08:18.618Z,71.43
2018-03-02T12:10:46.937Z,66.23
2018-03-02T12:13:15.306Z,59.67
2018-03-02T12:15:43.708Z,64.97
2018-03-02T12:18:12.030Z,74.23
2018-03-02T12:20:40.381Z,97.00
2018-03-02T12:23:08.758Z,78.67
2018-03-02T12:25:37.176Z,70.73
2018-03-02T12:28:05.480Z,77.77
2018-03-02T12:30:33.809Z,72.77
2018-03-02T12:33:02.292Z,72.27
2018-03-02T12:35:30.606Z,65.47
2018-03-02T12:37:59.038Z,73.03
2018-03-02T12:40:28.650Z,66.10
2018-03-02T12:42:57.071Z,71.27
2018-03-02T12:45:25.412Z,77.63
2018-03-02T12:47:53.741Z,66.23
2018-03-02T12:50:23.033Z,81.43
2018-03-02T12:52:51.434Z,73.40
2018-03-02T12:55:19.825Z,76.93
2018-03-02T12:57:48.206Z,78.53
2018-03-02T13:00:16.512Z,69.93
2018-03-02T13:02:44.892Z,70.67
2018-03-02T13:05:13.279Z,73.30
2018-03-02T13:07:41.670Z,71.30
2018-03-02T13:10:10.061Z,69.13
2018-03-02T13:12:38.392Z,72.03
2018-03-02T13:15:06.719Z,71.80
2018-03-02T13:17:35.146Z,66.50
2018-03-02T13:20:03.464Z,74.60
2018-03-02T13:22:40.762Z,72.57
2018-03-02T13:25:09.131Z,69.83
2018-03-02T13:27:49.402Z,69.83
2018-03-02T13:30:17.721Z,63.30
2018-03-02T13:35:45.072Z,70.90
2018-03-02T13:38:13.411Z,67.40
2018-03-02T13:40:53.677Z,78.17
2018-03-02T13:43:22.017Z,69.57
2018-03-02T13:45:50.904Z,64.67
2018-03-02T13:48:40.009Z,70.73
2018-03-02T13:51:08.438Z,70.00
2018-03-02T13:53:36.770Z,64.60
2018-03-02T13:56:05.088Z,62.27
2018-03-02T13:58:33.418Z,67.90
2018-03-02T14:01:01.732Z,67.83
2018-03-02T14:03:42.011Z,62.43
2018-03-02T14:06:10.343Z,78.33
2018-03-02T14:08:38.656Z,62.80
2018-03-02T14:11:07.022Z,66.50
2018-03-02T14:13:35.438Z,72.10
2018-03-02T14:16:03.747Z,66.60
2018-03-02T14:18:32.111Z,65.10
2018-03-02T14:21:00.444Z,66.77
2018-03-02T14:23:28.750Z,65.83
2018-03-02T14:25:57.100Z,73.37
2018-03-02T14:28:25.468Z,71.63
2018-03-02T14:30:53.803Z,64.10
2018-03-02T14:33:22.146Z,94.03
2018-03-02T14:35:50.704Z,67.60
2018-03-02T14:38:19.017Z,64.87
2018-03-02T14:40:47.339Z,73.77
2018-03-02T14:43:15.674Z,74.30
2018-03-02T14:45:44.132Z,64.57
2018-03-02T14:48:12.497Z,64.07
2018-03-02T14:50:40.858Z,65.27
2018-03-02T14:53:09.180Z,67.77
2018-03-02T14:55:37.536Z,63.30
2018-03-02T14:58:05.881Z,76.40
2018-03-02T15:00:34.248Z,78.70
2018-03-02T15:03:02.620Z,62.43
2018-03-02T15:05:31.039Z,62.63
2018-03-02T15:07:59.397Z,61.93
2018-03-02T15:10:27.833Z,67.23
2018-03-02T15:12:56.216Z,72.20
2018-03-02T15:15:24.579Z,64.63
2018-03-02T15:17:53.023Z,71.17
2018-03-02T15:20:21.504Z,63.10
2018-03-02T15:22:49.842Z,68.87
2018-03-02T15:25:18.181Z,68.83
2018-03-02T15:27:46.517Z,64.93
2018-03-02T15:30:14.913Z,62.60
2018-03-02T15:32:43.246Z,71.73
2018-03-02T15:35:11.588Z,59.40
2018-03-02T15:37:39.922Z,67.93
2018-03-02T15:40:08.249Z,66.07
2018-03-02T15:42:36.665Z,66.20
2018-03-02T15:45:05.011Z,65.10
2018-03-02T15:47:33.502Z,68.87
2018-03-02T15:50:01.862Z,66.90
2018-03-02T15:52:30.172Z,60.30
2018-03-02T15:54:58.506Z,67.60
2018-03-02T15:57:26.843Z,67.03
2018-03-02T15:59:55.282Z,65.90
2018-03-02T16:02:23.653Z,64.17
2018-03-02T16:04:51.999Z,58.13
2018-03-02T16:07:20.343Z,67.43
2018-03-02T16:09:48.687Z,61.77
2018-03-02T16:12:17.026Z,65.93
2018-03-02T16:14:45.371Z,58.03
2018-03-02T16:17:13.709Z,70.03
2018-03-02T16:19:42.076Z,67.53
2018-03-02T16:22:10.476Z,63.63
2018-03-02T16:24:38.813Z,56.33
2018-03-02T16:27:07.137Z,59.63
2018-03-02T16:29:35.470Z,63.53
2018-03-02T16:32:03.859Z,63.67
2018-03-02T16:34:32.200Z,57.47
2018-03-02T16:37:00.515Z,60.27
2018-03-02T16:39:28.860Z,59.77
2018-03-02T16:41:57.238Z,63.83
2018-03-02T16:44:25.663Z,70.30
2018-03-02T16:46:54.005Z,73.73
2018-03-02T16:49:22.386Z,56.23
2018-03-02T16:51:50.801Z,57.37
2018-03-02T16:54:19.277Z,66.37
2018-03-02T16:56:47.587Z,55.57
2018-03-02T16:59:15.964Z,67.30
2018-03-02T17:01:44.300Z,60.07
2018-03-02T17:04:12.687Z,55.57
2018-03-02T17:06:41.039Z,63.70
2018-03-02T17:09:09.366Z,38.93
2018-03-02T17:11:37.717Z,55.23
2018-03-02T17:14:06.050Z,59.77
2018-03-02T17:16:34.388Z,55.87
2018-03-02T17:19:02.710Z,53.20
2018-03-02T17:21:31.071Z,51.83
2018-03-02T17:23:59.416Z,51.17
2018-03-02T17:26:27.750Z,49.47
2018-03-02T17:28:56.078Z,51.53
2018-03-02T17:31:24.437Z,51.63
2018-03-02T17:33:52.769Z,52.83
2018-03-02T17:36:23.128Z,67.43
2018-03-02T17:38:56.491Z,56.77
2018-03-02T17:41:24.972Z,44.70
2018-03-02T17:43:53.452Z,52.27
2018-03-02T17:46:21.798Z,54.47
2018-03-02T17:48:50.159Z,53.27
2018-03-02T17:51:18.477Z,54.43
2018-03-02T17:53:46.829Z,51.37
2018-03-02T17:56:15.153Z,55.17
2018-03-02T17:58:43.487Z,51.87
2018-03-02T18:01:11.833Z,55.60
2018-03-02T18:03:40.166Z,54.60
2018-03-02T18:06:08.514Z,51.67
2018-03-02T18:08:36.845Z,51.07
2018-03-02T18:11:05.200Z,47.20
2018-03-02T18:13:33.567Z,48.63
2018-03-02T18:16:01.965Z,54.00
2018-03-02T18:18:30.299Z,59.30
2018-03-02T18:20:58.636Z,48.70
2018-03-02T18:23:26.986Z,54.00
2018-03-02T18:25:55.315Z,52.40
2018-03-02T18:28:23.719Z,51.13
2018-03-02T18:30:52.063Z,50.33
2018-03-02T18:33:20.410Z,58.57
2018-03-02T18:35:48.728Z,53.20
2018-03-02T18:38:17.836Z,47.47
2018-03-02T18:40:46.160Z,54.50
2018-03-02T18:43:14.517Z,51.73
2018-03-02T18:45:42.846Z,48.70
2018-03-02T18:48:11.250Z,46.47
2018-03-02T18:50:39.642Z,48.83
2018-03-02T18:53:08.034Z,46.93
2018-03-02T18:55:36.364Z,49.53
2018-03-02T18:58:04.697Z,41.87
2018-03-02T19:00:33.109Z,52.33
2018-03-02T19:03:01.501Z,48.07
2018-03-02T19:05:29.833Z,48.20
2018-03-02T19:07:58.167Z,46.13
2018-03-02T19:10:26.612Z,50.50
2018-03-02T19:12:54.982Z,44.83
2018-03-02T19:15:23.386Z,51.07
2018-03-02T19:17:51.918Z,48.83
2018-03-02T19:20:20.253Z,47.87
2018-03-02T19:22:48.643Z,45.93
2018-03-02T19:25:17.007Z,39.33
2018-03-02T19:27:45.425Z,45.67
2018-03-02T19:30:13.777Z,44.03
2018-03-02T19:32:42.107Z,45.03
2018-03-02T19:35:10.474Z,53.87
2018-03-02T19:37:38.798Z,43.90
2018-03-02T19:40:07.135Z,45.90
2018-03-02T19:42:35.466Z,42.70
2018-03-02T19:45:03.859Z,42.63
2018-03-02T19:47:32.275Z,47.00
2018-03-02T19:50:00.617Z,44.80
2018-03-02T19:52:28.966Z,44.97
2018-03-02T19:54:57.344Z,42.27
2018-03-02T19:57:25.698Z,42.80
2018-03-02T19:59:54.045Z,41.13
2018-03-02T20:02:22.397Z,42.00
2018-03-02T20:04:50.725Z,44.67
2018-03-02T20:07:19.185Z,46.40
2018-03-02T20:09:47.506Z,38.97
2018-03-02T20:12:15.898Z,49.33
2018-03-02T20:14:44.210Z,43.63
2018-03-02T20:17:12.713Z,39.93
2018-03-02T20:19:41.049Z,46.33
2018-03-02T20:22:09.436Z,49.03
2018-03-02T20:24:37.830Z,50.03
2018-03-02T20:27:06.216Z,43.97
2018-03-02T20:29:34.623Z,40.90
2018-03-02T20:32:02.948Z,46.63
2018-03-02T20:34:31.300Z,47.10
2018-03-02T20:36:59.670Z,46.07
2018-03-02T20:39:28.095Z,48.63
2018-03-02T20:41:56.501Z,45.97
2018-03-02T20:44:24.831Z,51.23
2018-03-02T20:46:53.212Z,46.17
2018-03-02T20:49:21.544Z,41.97
2018-03-02T20:51:49.947Z,47.87
2018-03-02T20:54:18.282Z,50.60
2018-03-02T20:56:46.629Z,45.37
2018-03-02T20:59:14.973Z,50.70
2018-03-02T21:01:43.295Z,45.27
2018-03-02T21:04:11.701Z,46.30
2018-03-02T21:06:40.045Z,47.97
2018-03-02T21:09:08.385Z,51.23
2018-03-02T21:11:36.720Z,50.07
2018-03-02T21:14:05.068Z,42.83
2018-03-02T21:16:33.391Z,44.63
2018-03-02T21:19:01.713Z,47.73
2018-03-02T21:21:30.038Z,49.67
2018-03-02T21:23:58.568Z,47.77
2018-03-02T21:26:26.911Z,49.60
2018-03-02T21:28:55.299Z,44.93
2018-03-02T21:31:23.627Z,44.57
2018-03-02T21:33:52.041Z,38.30
2018-03-02T21:36:20.514Z,51.70
2018-03-02T21:38:48.847Z,51.13
2018-03-02T21:41:17.186Z,45.70
2018-03-02T21:43:45.604Z,48.10
2018-03-02T21:46:13.929Z,49.17
2018-03-02T21:48:42.249Z,40.83
2018-03-02T21:51:10.595Z,43.57
2018-03-02T21:53:38.935Z,52.77
2018-03-02T21:56:07.383Z,46.63
2018-03-02T21:58:35.691Z,46.10
2018-03-02T22:01:04.025Z,41.63
2018-03-02T22:03:32.361Z,47.90
2018-03-02T22:06:00.692Z,49.00
2018-03-02T22:08:29.124Z,47.73
2018-03-02T22:10:57.485Z,43.60
2018-03-02T22:13:26.923Z,45.23
2018-03-02T22:15:55.264Z,52.40
2018-03-02T22:18:23.914Z,41.80
2018-03-02T22:20:52.297Z,49.73
2018-03-02T22:23:20.748Z,45.57
2018-03-02T22:25:49.184Z,47.30
2018-03-02T22:28:17.511Z,41.10
2018-03-02T22:30:45.853Z,47.50
2018-03-02T22:33:14.288Z,40.70
2018-03-02T22:35:42.605Z,47.77
2018-03-02T22:38:11.027Z,48.63
2018-03-02T22:40:39.361Z,52.53
2018-03-02T22:43:07.686Z,48.47
2018-03-02T22:45:36.090Z,49.73
2018-03-02T22:48:04.408Z,42.13
2018-03-02T22:50:32.741Z,46.77
2018-03-02T22:53:01.115Z,44.53
2018-03-02T22:55:29.460Z,47.57
2018-03-02T22:57:57.856Z,43.57
2018-03-02T23:00:26.196Z,48.63
2018-03-02T23:02:54.977Z,46.73
2018-03-02T23:05:23.315Z,48.00
2018-03-02T23:07:51.670Z,46.87
2018-03-02T23:10:20.028Z,43.53
2018-03-02T23:12:48.354Z,49.37
2018-03-02T23:15:16.704Z,45.07
2018-03-02T23:17:45.100Z,46.47
2018-03-02T23:20:13.433Z,49.83
2018-03-02T23:22:41.785Z,42.90
2018-03-02T23:25:10.118Z,49.70
2018-03-02T23:27:38.450Z,57.40
2018-03-02T23:30:06.887Z,45.95
2018-03-02T23:32:35.239Z,52.13
2018-03-02T23:35:03.548Z,44.17
2018-03-02T23:37:31.935Z,65.97
2018-03-02T23:40:00.299Z,45.13
2018-03-02T23:42:28.727Z,48.53
2018-03-02T23:44:57.108Z,44.13
2018-03-02T23:47:25.469Z,45.05
2018-03-02T23:49:53.885Z,48.80
2018-03-02T23:52:23.460Z,49.92
2018-03-02T23:54:51.810Z,49.67
2018-03-02T23:57:20.157Z,55.83
2018-03-02T23:59:48.578Z,49.60
